Huvudsida
METAR-TAF:

METAR-TAF

Flygplatser :

Kuusamo flygplats

Kuusamo, Finland

latitud: 65-58N, longitud: 029-11E, höjd: 262 m

Aktuellt väderrapport

Denna rapport gjordes för 32 minuter sedan, klockan 09:20 UTC
Vind 10 kt från nordväst, varierande mellan väst och nordost
Temperatur 11°C
Fuktighet 35%
Tryck 1028 hPa
Sikt 10 km eller mer
Inga moln under 1 500 m eller inga cumulonimbus

METAR: EFKS 270920Z AUTO 31010KT 270V040 CAVOK 11/M04 Q1028

Tid: 12:52 (09:52 UTC)


TAF: saknas

Aktuella väderrapporter och prognoser från 4000 flygplatser (METAR- och TAF-rapporter).

De tillgängliga stationerna syns som gula och röda prickar på kartan.

För musen över prickarna för att se namnen på stationerna.

Klicka sedan för att få väderrapporter och prognoser.

För att ändra kartan: Klicka på de gröna knapparna med ett svart kors på för att zooma in; den gröna knappen med ett streck på för att zooma ut; eller på de gröna pilarna för angränsande kartor.


METAR-TAF: